createdAt,value
2022-12-17T00:00:28.875Z,100866.28
2022-12-17T00:01:52.040Z,100870.22
2022-12-17T00:03:16.042Z,100875.69
2022-12-17T00:04:36.590Z,100878.59
2022-12-17T00:05:56.609Z,100872.97
2022-12-17T00:07:16.770Z,100861.31
2022-12-17T00:08:36.791Z,100881.66
2022-12-17T00:09:56.682Z,100869.88
2022-12-17T00:11:16.857Z,100864.41
2022-12-17T00:12:36.966Z,100872.97
2022-12-17T00:13:57.323Z,100871.25
2022-12-17T00:15:17.401Z,100877.78
2022-12-17T00:16:37.462Z,100881.72
2022-12-17T00:17:57.445Z,100879.84
2022-12-17T00:19:17.564Z,100878.97
2022-12-17T00:20:37.346Z,100890.78
2022-12-17T00:21:57.125Z,100880.69
2022-12-17T00:23:22.401Z,100881.72
2022-12-17T00:24:42.804Z,100881.00
2022-12-17T00:26:02.720Z,100885.47
2022-12-17T00:27:23.043Z,100891.81
2022-12-17T00:28:43.402Z,100886.66
2022-12-17T00:30:03.734Z,100887.50
2022-12-17T00:31:23.826Z,100887.69
2022-12-17T00:32:44.695Z,100887.69
2022-12-17T00:34:04.916Z,100893.34
2022-12-17T00:35:25.701Z,100888.72
2022-12-17T00:36:45.602Z,100902.75
2022-12-17T00:38:05.819Z,100895.56
2022-12-17T00:39:26.666Z,100901.91
2022-12-17T00:40:46.907Z,100903.09
2022-12-17T00:42:07.594Z,100905.66
2022-12-17T00:43:30.441Z,100900.19
2022-12-17T00:44:50.710Z,100906.53
2022-12-17T00:46:11.183Z,100909.44
2022-12-17T00:47:31.410Z,100903.28
2022-12-17T00:48:51.689Z,100897.81
2022-12-17T00:50:11.941Z,100894.53
2022-12-17T00:51:32.152Z,100905.16
2022-12-17T00:52:52.316Z,100910.47
2022-12-17T00:54:12.554Z,100910.28
2022-12-17T00:55:33.757Z,100913.88
2022-12-17T00:56:54.210Z,100908.41
2022-12-17T00:58:18.089Z,100912.84
2022-12-17T00:59:38.141Z,100925.66
2022-12-17T01:00:58.340Z,100915.56
2022-12-17T01:02:18.610Z,100920.19
2022-12-17T01:03:39.830Z,100916.44
2022-12-17T01:05:00.439Z,100921.03
2022-12-17T01:06:20.821Z,100919.16
2022-12-17T01:07:41.102Z,100915.56
2022-12-17T01:09:01.101Z,100918.31
2022-12-17T01:10:21.329Z,100920.03
2022-12-17T01:11:41.239Z,100925.50
2022-12-17T01:13:01.525Z,100921.91
2022-12-17T01:14:21.796Z,100925.00
2022-12-17T01:15:41.897Z,100923.09
2022-12-17T01:17:02.133Z,100922.25
2022-12-17T01:18:22.434Z,100922.25
2022-12-17T01:19:42.432Z,100928.75
2022-12-17T01:21:03.265Z,100934.56
2022-12-17T01:22:23.406Z,100925.50
2022-12-17T01:23:43.739Z,100930.13
2022-12-17T01:25:03.799Z,100945.69
2022-12-17T01:26:23.982Z,100946.53
2022-12-17T01:27:43.999Z,100951.47
2022-12-17T01:29:04.447Z,100943.44
2022-12-17T01:30:24.928Z,100945.50
2022-12-17T01:31:45.013Z,100947.56
2022-12-17T01:33:05.029Z,100938.69
2022-12-17T01:34:25.549Z,100953.38
2022-12-17T01:35:45.569Z,100947.06
2022-12-17T01:37:05.293Z,100951.81
2022-12-17T01:38:34.608Z,100949.44
2022-12-17T01:39:54.934Z,100955.75
2022-12-17T01:41:14.981Z,100956.78
2022-12-17T01:42:35.154Z,100952.16
2022-12-17T01:43:55.853Z,100954.03
2022-12-17T01:45:15.962Z,100962.06
2022-12-17T01:46:36.323Z,100957.47
2022-12-17T01:47:57.586Z,100964.81
2022-12-17T01:49:17.726Z,100965.84
2022-12-17T01:50:37.640Z,100959.50
2022-12-17T01:51:57.838Z,100969.41
2022-12-17T01:53:18.073Z,100972.50
2022-12-17T01:54:38.272Z,100976.25
2022-12-17T01:55:58.253Z,100969.94
2022-12-17T01:57:18.182Z,100969.75
2022-12-17T01:58:38.547Z,100969.75
2022-12-17T02:00:05.568Z,100971.66
2022-12-17T02:01:33.971Z,100971.47
2022-12-17T02:02:53.997Z,100981.56
2022-12-17T02:04:15.170Z,100974.38
2022-12-17T02:05:35.597Z,100973.69
2022-12-17T02:06:55.914Z,100983.78
2022-12-17T02:08:29.171Z,100983.78
2022-12-17T02:10:10.097Z,100986.69
2022-12-17T02:11:34.468Z,100988.75
2022-12-17T02:13:04.983Z,100991.97
2022-12-17T02:14:29.239Z,100996.56
2022-12-17T02:15:58.578Z,100988.03
2022-12-17T02:17:19.237Z,100998.13
2022-12-17T02:18:47.087Z,100987.50
2022-12-17T02:20:17.479Z,100991.97
2022-12-17T02:21:37.324Z,100991.63
2022-12-17T02:23:03.670Z,100993.66
2022-12-17T02:24:28.449Z,101003.59
2022-12-17T02:25:54.710Z,101007.16
2022-12-17T02:27:16.247Z,101007.00
2022-12-17T02:28:36.125Z,101000.50
2022-12-17T02:30:00.213Z,101006.16
2022-12-17T02:31:20.510Z,100992.97
2022-12-17T02:32:40.385Z,101007.69
2022-12-17T02:34:01.226Z,101007.00
2022-12-17T02:35:27.953Z,101010.59
2022-12-17T02:36:48.269Z,101008.72
2022-12-17T02:38:08.406Z,101001.53
2022-12-17T02:39:28.642Z,101002.38
2022-12-17T02:40:49.161Z,101008.72
2022-12-17T02:42:10.046Z,101006.16
2022-12-17T02:43:30.135Z,101009.72
2022-12-17T02:44:50.326Z,101015.19
2022-12-17T02:46:13.548Z,101016.06
2022-12-17T02:47:34.262Z,101007.00
2022-12-17T02:48:54.819Z,101016.22
2022-12-17T02:50:15.131Z,101001.53
2022-12-17T02:51:35.261Z,101007.84
2022-12-17T02:52:57.431Z,101007.84
2022-12-17T02:54:19.746Z,101003.25
2022-12-17T02:55:39.899Z,101010.41
2022-12-17T02:57:00.180Z,101008.72
2022-12-17T02:58:20.731Z,101004.94
2022-12-17T02:59:41.035Z,101007.00
2022-12-17T03:01:06.940Z,101012.47
2022-12-17T03:02:28.657Z,101009.91
2022-12-17T03:03:50.578Z,101015.53
2022-12-17T03:05:43.845Z,101013.13
2022-12-17T03:07:01.593Z,101016.88
2022-12-17T03:08:21.375Z,101021.50
2022-12-17T03:09:41.705Z,101024.38
2022-12-17T03:11:02.234Z,101020.13
2022-12-17T03:12:22.608Z,101021.31
2022-12-17T03:13:42.773Z,101032.25
2022-12-17T03:15:03.111Z,101032.25
2022-12-17T03:16:31.405Z,101010.31
2022-12-17T03:17:54.512Z,101022.97
2022-12-17T03:19:14.630Z,101030.50
2022-12-17T03:20:34.836Z,101029.81
2022-12-17T03:21:55.200Z,101020.94
2022-12-17T03:23:22.175Z,101026.41
2022-12-17T03:24:42.398Z,101025.72
2022-12-17T03:26:02.610Z,101030.16
2022-12-17T03:27:23.290Z,101030.28
2022-12-17T03:28:43.610Z,101033.03
2022-12-17T03:30:03.823Z,101032.16
2022-12-17T03:31:23.743Z,101033.53
2022-12-17T03:32:43.957Z,101029.94
2022-12-17T03:34:04.216Z,101040.00
2022-12-17T03:35:24.401Z,101039.16
2022-12-17T03:36:44.838Z,101040.00
2022-12-17T03:38:05.188Z,101044.63
2022-12-17T03:39:25.114Z,101042.06
2022-12-17T03:40:45.130Z,101050.25
2022-12-17T03:42:05.480Z,101041.19
2022-12-17T03:43:25.945Z,101051.28
2022-12-17T03:44:45.899Z,101050.41
2022-12-17T03:46:10.426Z,101049.72
2022-12-17T03:47:30.510Z,101055.19
2022-12-17T03:49:10.535Z,101052.59
2022-12-17T03:50:30.559Z,101043.56
2022-12-17T03:51:50.687Z,101048.16
2022-12-17T03:53:10.967Z,101053.09
2022-12-17T03:54:30.810Z,101050.53
2022-12-17T03:55:50.702Z,101049.69
2022-12-17T03:57:15.920Z,101049.69
2022-12-17T03:58:36.200Z,101053.44
2022-12-17T03:59:56.634Z,101055.47
2022-12-17T04:01:24.511Z,101057.34
2022-12-17T04:02:44.780Z,101059.22
2022-12-17T04:04:04.967Z,101064.53
2022-12-17T04:05:25.187Z,101061.78
2022-12-17T04:06:45.365Z,101060.94
2022-12-17T04:08:05.762Z,101059.22
2022-12-17T04:09:25.593Z,101064.69
2022-12-17T04:10:45.929Z,101063.69
2022-12-17T04:12:05.833Z,101052.91
2022-12-17T04:13:25.796Z,101058.38
2022-12-17T04:14:45.981Z,101060.09
2022-12-17T04:16:06.515Z,101068.97
2022-12-17T04:17:26.649Z,101068.97
2022-12-17T04:18:47.014Z,101066.25
2022-12-17T04:20:07.529Z,101068.97
2022-12-17T04:21:27.495Z,101067.59
2022-12-17T04:22:47.566Z,101069.59
2022-12-17T04:24:07.708Z,101068.22
2022-12-17T04:25:27.903Z,101075.72
2022-12-17T04:26:47.985Z,101073.63
2022-12-17T04:28:08.341Z,101069.34
2022-12-17T04:29:28.507Z,101073.09
2022-12-17T04:30:48.751Z,101075.50
2022-12-17T04:32:09.023Z,101071.91
2022-12-17T04:33:29.079Z,101069.19
2022-12-17T04:34:49.347Z,101084.56
2022-12-17T04:36:09.675Z,101089.31
2022-12-17T04:37:29.802Z,101095.44
2022-12-17T04:38:50.099Z,101089.97
2022-12-17T04:40:10.201Z,101079.91
2022-12-17T04:41:30.159Z,101094.59
2022-12-17T04:42:50.336Z,101092.88
2022-12-17T04:44:10.516Z,101089.28
2022-12-17T04:45:30.647Z,101096.06
2022-12-17T04:46:50.878Z,101092.47
2022-12-17T04:48:18.675Z,101101.53
2022-12-17T04:49:38.927Z,101100.66
2022-12-17T04:50:59.745Z,101101.53
2022-12-17T04:52:20.302Z,101091.78
2022-12-17T04:53:40.606Z,101098.94
2022-12-17T04:55:00.672Z,101097.94
2022-12-17T04:56:20.898Z,101103.22
2022-12-17T04:57:40.838Z,101101.53
2022-12-17T04:59:01.075Z,101098.09
2022-12-17T05:00:21.216Z,101105.59
2022-12-17T05:01:41.689Z,101099.28
2022-12-17T05:03:01.911Z,101108.50
2022-12-17T05:04:22.146Z,101109.97
2022-12-17T05:05:44.912Z,101105.69
2022-12-17T05:07:05.068Z,101107.56
2022-12-17T05:08:25.149Z,101112.00
2022-12-17T05:09:45.407Z,101104.84
2022-12-17T05:11:05.721Z,101107.41
2022-12-17T05:12:25.712Z,101103.81
2022-12-17T05:13:45.750Z,101109.44
2022-12-17T05:15:05.964Z,101105.16
2022-12-17T05:16:26.252Z,101107.72
2022-12-17T05:17:46.267Z,101106.88
2022-12-17T05:19:06.045Z,101115.06
2022-12-17T05:20:26.548Z,101112.66
2022-12-17T05:21:46.607Z,101117.25
2022-12-17T05:23:06.861Z,101116.41
2022-12-17T05:24:26.665Z,101127.59
2022-12-17T05:25:47.002Z,101128.78
2022-12-17T05:27:07.264Z,101119.28
2022-12-17T05:28:27.178Z,101126.22
2022-12-17T05:29:47.481Z,101125.34
2022-12-17T05:31:11.245Z,101125.53
2022-12-17T05:32:33.055Z,101134.03
2022-12-17T05:33:53.067Z,101135.75
2022-12-17T05:35:13.426Z,101130.59
2022-12-17T05:36:33.458Z,101133.16
2022-12-17T05:37:53.322Z,101144.09
2022-12-17T05:39:13.680Z,101140.34
2022-12-17T05:40:33.690Z,101144.94
2022-12-17T05:41:53.705Z,101148.69
2022-12-17T05:43:14.648Z,101147.66
2022-12-17T05:44:34.858Z,101145.97
2022-12-17T05:45:54.740Z,101149.53
2022-12-17T05:47:15.026Z,101156.16
2022-12-17T05:48:35.007Z,101152.72
2022-12-17T05:49:56.470Z,101150.16
2022-12-17T05:51:16.695Z,101159.19
2022-12-17T05:52:36.623Z,101153.91
2022-12-17T05:53:56.838Z,101151.31
2022-12-17T05:55:16.786Z,101157.66
2022-12-17T05:56:36.913Z,101162.25
2022-12-17T05:57:57.225Z,101154.22
2022-12-17T05:59:17.323Z,101161.69
2022-12-17T06:00:37.496Z,101160.84
2022-12-17T06:01:57.735Z,101160.28
2022-12-17T06:03:18.581Z,101164.88
2022-12-17T06:04:38.354Z,101153.97
2022-12-17T06:05:58.714Z,101164.03
2022-12-17T06:07:18.764Z,101168.94
2022-12-17T06:08:39.107Z,101164.34
2022-12-17T06:09:59.476Z,101163.47
2022-12-17T06:11:19.242Z,101168.94
2022-12-17T06:12:39.531Z,101174.41
2022-12-17T06:13:59.330Z,101176.09
2022-12-17T06:15:19.421Z,101184.28
2022-12-17T06:16:39.817Z,101185.00
2022-12-17T06:18:01.859Z,101187.00
2022-12-17T06:19:21.673Z,101199.63
2022-12-17T06:20:41.709Z,101195.03
2022-12-17T06:22:01.988Z,101192.16
2022-12-17T06:23:22.974Z,101202.06
2022-12-17T06:24:46.121Z,101200.06
2022-12-17T06:26:06.711Z,101192.00
2022-12-17T06:27:26.629Z,101197.44
2022-12-17T06:28:46.859Z,101203.91
2022-12-17T06:30:07.014Z,101202.06
2022-12-17T06:31:27.291Z,101206.81
2022-12-17T06:32:47.302Z,101212.25
2022-12-17T06:34:07.115Z,101207.66
2022-12-17T06:35:27.258Z,101207.13
2022-12-17T06:36:47.265Z,101220.59
2022-12-17T06:38:07.465Z,101213.28
2022-12-17T06:39:27.907Z,101217.72
2022-12-17T06:40:47.786Z,101224.03
2022-12-17T06:42:08.006Z,101217.03
2022-12-17T06:43:28.294Z,101223.50
2022-12-17T06:44:48.423Z,101223.50
2022-12-17T06:46:10.319Z,101220.75
2022-12-17T06:47:30.579Z,101219.75
2022-12-17T06:48:50.706Z,101229.97
2022-12-17T06:50:10.866Z,101226.53
2022-12-17T06:51:32.627Z,101226.53
2022-12-17T06:52:52.521Z,101221.78
2022-12-17T06:54:12.815Z,101235.41
2022-12-17T06:55:32.856Z,101243.59
2022-12-17T06:56:53.071Z,101217.53
2022-12-17T06:58:18.599Z,101243.59
2022-12-17T06:59:38.826Z,101239.16
2022-12-17T07:00:59.076Z,101249.38
2022-12-17T07:02:19.650Z,101248.34
2022-12-17T07:03:40.107Z,101251.06
2022-12-17T07:05:00.405Z,101260.28
2022-12-17T07:06:20.639Z,101253.09
2022-12-17T07:07:40.950Z,101258.72
2022-12-17T07:09:00.907Z,101268.75
2022-12-17T07:10:21.305Z,101260.56
2022-12-17T07:11:41.638Z,101265.31
2022-12-17T07:13:02.049Z,101269.91
2022-12-17T07:14:21.969Z,101225.97
2022-12-17T07:15:42.205Z,101261.19
2022-12-17T07:17:02.245Z,101267.50
2022-12-17T07:18:22.346Z,101275.81
2022-12-17T07:19:42.491Z,101277.84
2022-12-17T07:21:02.332Z,101283.31
2022-12-17T07:22:22.267Z,101283.31
2022-12-17T07:23:42.226Z,101286.03
2022-12-17T07:25:02.064Z,101291.34
2022-12-17T07:26:22.052Z,101299.66
2022-12-17T07:27:42.246Z,101294.53
2022-12-17T07:29:02.369Z,101297.09
2022-12-17T07:30:22.503Z,101304.41
2022-12-17T07:31:42.627Z,101310.56
2022-12-17T07:33:02.858Z,101310.56
2022-12-17T07:34:22.941Z,101316.88
2022-12-17T07:35:42.910Z,101321.19
2022-12-17T07:37:02.830Z,101306.53
2022-12-17T07:38:23.052Z,101304.34
2022-12-17T07:39:43.283Z,101320.28
2022-12-17T07:41:03.592Z,101315.53
2022-12-17T07:42:23.512Z,101308.75
2022-12-17T07:43:47.024Z,101315.66
2022-12-17T07:45:11.730Z,101320.78
2022-12-17T07:46:32.019Z,101319.47
2022-12-17T07:47:51.970Z,101316.75
2022-12-17T07:49:12.206Z,101324.47
2022-12-17T07:50:32.186Z,101321.44
2022-12-17T07:51:52.145Z,101329.31
2022-12-17T07:53:18.744Z,101330.72
2022-12-17T07:54:39.135Z,101325.84
2022-12-17T07:55:59.414Z,101321.09
2022-12-17T07:57:19.623Z,101329.97
2022-12-17T07:58:39.513Z,101329.66
2022-12-17T07:59:59.760Z,101333.25
2022-12-17T08:01:20.264Z,101329.34
2022-12-17T08:02:45.146Z,101336.53
2022-12-17T08:04:05.193Z,101339.81
2022-12-17T08:05:25.381Z,101342.94
2022-12-17T08:06:45.599Z,101334.59
2022-12-17T08:08:05.765Z,101335.28
2022-12-17T08:09:25.920Z,101338.59
2022-12-17T08:10:45.941Z,101334.84
2022-12-17T08:12:06.171Z,101331.97
2022-12-17T08:13:26.095Z,101346.31
2022-12-17T08:14:45.917Z,101343.44
2022-12-17T08:16:06.077Z,101340.53
2022-12-17T08:17:26.109Z,101346.56
2022-12-17T08:18:46.291Z,101351.88
2022-12-17T08:20:06.528Z,101361.63
2022-12-17T08:21:26.789Z,101357.03
2022-12-17T08:22:47.090Z,101353.97
2022-12-17T08:24:06.968Z,101363.88
2022-12-17T08:25:26.723Z,101356.53
2022-12-17T08:26:48.285Z,101358.84
2022-12-17T08:28:41.221Z,101359.38
2022-12-17T08:29:53.410Z,101359.91
2022-12-17T08:31:13.530Z,101369.81
2022-12-17T08:32:33.701Z,101371.38
2022-12-17T08:33:53.981Z,101377.69
2022-12-17T08:35:14.002Z,101377.69
2022-12-17T08:36:34.206Z,101363.44
2022-12-17T08:37:54.477Z,101373.13
2022-12-17T08:39:14.573Z,101373.66
2022-12-17T08:40:34.736Z,101377.78
2022-12-17T08:41:57.489Z,101383.09
2022-12-17T08:43:21.149Z,101378.50
2022-12-17T08:44:41.504Z,101381.06
2022-12-17T08:46:07.698Z,101381.63
2022-12-17T08:47:28.033Z,101379.06
2022-12-17T08:48:48.253Z,101384.03
2022-12-17T08:50:08.283Z,101385.75
2022-12-17T08:51:28.145Z,101391.59
2022-12-17T08:52:48.459Z,101388.41
2022-12-17T08:54:08.464Z,101397.00
2022-12-17T08:55:28.809Z,101401.28
2022-12-17T08:56:48.850Z,101397.41
2022-12-17T08:58:12.134Z,101397.25
2022-12-17T08:59:32.142Z,101392.78
2022-12-17T09:00:52.148Z,101397.53
2022-12-17T09:02:12.797Z,101401.00
2022-12-17T09:03:33.133Z,101402.69
2022-12-17T09:04:53.310Z,101409.88
2022-12-17T09:06:13.687Z,101404.25
2022-12-17T09:07:33.927Z,101408.38
2022-12-17T09:08:54.104Z,101401.72
2022-12-17T09:10:13.882Z,101407.19
2022-12-17T09:11:33.670Z,101406.75
2022-12-17T09:12:53.550Z,101410.88
2022-12-17T09:14:13.825Z,101408.31
2022-12-17T09:15:34.141Z,101402.50
2022-12-17T09:16:53.973Z,101406.97
2022-12-17T09:18:14.364Z,101401.50
2022-12-17T09:19:34.649Z,101412.25
2022-12-17T09:20:54.750Z,101412.81
2022-12-17T09:22:15.133Z,101411.47
2022-12-17T09:23:35.703Z,101417.31
2022-12-17T09:24:56.009Z,101404.38
2022-12-17T09:26:16.202Z,101415.50
2022-12-17T09:27:36.063Z,101406.78
2022-12-17T09:28:56.030Z,101412.94
2022-12-17T09:30:16.647Z,101413.47
2022-12-17T09:31:37.629Z,101418.78
2022-12-17T09:32:58.014Z,101420.81
2022-12-17T09:34:17.883Z,101421.84
2022-12-17T09:35:37.838Z,101417.41
2022-12-17T09:36:58.077Z,101427.31
2022-12-17T09:38:18.398Z,101420.13
2022-12-17T09:39:38.287Z,101427.63
2022-12-17T09:40:58.239Z,101420.13
2022-12-17T09:42:25.522Z,101434.50
2022-12-17T09:43:57.637Z,101435.91
2022-12-17T09:45:17.861Z,101431.16
2022-12-17T09:46:39.525Z,101427.91
2022-12-17T09:48:02.709Z,101434.78
2022-12-17T09:49:58.109Z,101432.69
2022-12-17T09:51:18.376Z,101436.66
2022-12-17T09:52:53.990Z,101443.22
2022-12-17T09:54:14.271Z,101438.28
2022-12-17T09:55:34.018Z,101438.97
2022-12-17T09:56:54.510Z,101438.44
2022-12-17T09:58:17.255Z,101434.50
2022-12-17T09:59:38.513Z,101444.59
2022-12-17T10:01:01.094Z,101441.53
2022-12-17T10:02:30.101Z,101440.53
2022-12-17T10:04:03.641Z,101446.38
2022-12-17T10:05:24.159Z,101439.03
2022-12-17T10:06:44.430Z,101446.22
2022-12-17T10:08:04.619Z,101445.03
2022-12-17T10:09:31.648Z,101444.88
2022-12-17T10:10:51.945Z,101445.41
2022-12-17T10:12:11.760Z,101439.63
2022-12-17T10:13:38.491Z,101440.31
2022-12-17T10:14:58.866Z,101436.22
2022-12-17T10:16:19.229Z,101433.00
2022-12-17T10:17:42.315Z,101434.38
2022-12-17T10:19:02.607Z,101429.25
2022-12-17T10:20:23.073Z,101436.25
2022-12-17T10:21:49.414Z,101437.28
2022-12-17T10:23:09.537Z,101438.84
2022-12-17T10:24:29.693Z,101447.56
2022-12-17T10:25:49.870Z,101438.03
2022-12-17T10:27:10.149Z,101439.22
2022-12-17T10:28:31.207Z,101441.09
2022-12-17T10:29:51.528Z,101439.00
2022-12-17T10:31:12.211Z,101439.34
2022-12-17T10:32:35.515Z,101437.91
2022-12-17T10:33:56.097Z,101439.66
2022-12-17T10:35:16.286Z,101444.97
2022-12-17T10:36:39.934Z,101438.78
2022-12-17T10:38:00.133Z,101447.16
2022-12-17T10:39:19.994Z,101446.00
2022-12-17T10:40:46.483Z,101450.28
2022-12-17T10:42:06.614Z,101456.28
2022-12-17T10:43:45.354Z,101453.56
2022-12-17T10:45:05.589Z,101457.66
2022-12-17T10:46:25.576Z,101458.00
2022-12-17T10:47:46.147Z,101457.84
2022-12-17T10:49:11.252Z,101465.41
2022-12-17T10:50:35.719Z,101459.38
2022-12-17T10:51:57.255Z,101468.84
2022-12-17T10:53:17.493Z,101464.75
2022-12-17T10:54:45.333Z,101471.47
2022-12-17T10:56:09.286Z,101470.97
2022-12-17T10:57:44.862Z,101463.25
2022-12-17T10:59:05.969Z,101460.00
2022-12-17T11:00:49.656Z,101463.28
2022-12-17T11:02:11.767Z,101452.13
2022-12-17T11:03:43.901Z,101453.00
2022-12-17T11:05:11.002Z,101456.47
2022-12-17T11:06:31.871Z,101451.50
2022-12-17T11:07:55.821Z,101457.16
2022-12-17T11:09:16.058Z,101457.63
2022-12-17T11:10:37.279Z,101458.81
2022-12-17T11:11:58.025Z,101457.63
2022-12-17T11:13:21.039Z,101459.38
2022-12-17T11:14:41.140Z,101459.66
2022-12-17T11:16:02.017Z,101462.09
2022-12-17T11:17:22.098Z,101471.00
2022-12-17T11:18:44.469Z,101470.34
2022-12-17T11:20:06.168Z,101466.88
2022-12-17T11:21:28.146Z,101468.59
2022-12-17T11:22:53.836Z,101467.59
2022-12-17T11:24:19.156Z,101473.75
2022-12-17T11:25:51.277Z,101471.19
2022-12-17T11:27:11.874Z,101471.31
2022-12-17T11:28:40.292Z,101468.28
2022-12-17T11:30:00.401Z,101471.72
2022-12-17T11:31:23.305Z,101477.53
2022-12-17T11:33:12.341Z,101475.63
2022-12-17T11:34:35.668Z,101474.78
2022-12-17T11:36:00.857Z,101468.28
2022-12-17T11:37:32.633Z,101474.28
2022-12-17T11:38:52.934Z,101477.03
2022-12-17T11:40:16.185Z,101470.34
2022-12-17T11:42:10.858Z,101475.34
2022-12-17T11:43:31.681Z,101472.44
2022-12-17T11:45:10.756Z,101482.03
2022-12-17T11:46:33.940Z,101481.88
2022-12-17T11:48:12.667Z,101475.19
2022-12-17T11:49:41.697Z,101476.91
2022-12-17T11:51:01.741Z,101474.00
2022-12-17T11:52:29.878Z,101481.75
2022-12-17T11:53:53.022Z,101494.06
2022-12-17T11:55:22.540Z,101487.06
2022-12-17T11:56:45.341Z,101489.59
2022-12-17T11:58:16.853Z,101491.63
2022-12-17T11:59:52.723Z,101487.88
2022-12-17T12:01:19.393Z,101494.75
2022-12-17T12:02:42.725Z,101488.25
2022-12-17T12:04:12.121Z,101486.88
2022-12-17T12:06:07.784Z,101474.72
2022-12-17T12:07:39.799Z,101484.47
2022-12-17T12:09:26.068Z,101475.91
2022-12-17T12:10:49.118Z,101481.41
2022-12-17T12:12:27.629Z,101484.81
2022-12-17T12:13:54.780Z,101482.78
2022-12-17T12:15:15.186Z,101481.06
2022-12-17T12:16:44.144Z,101475.56
2022-12-17T12:18:08.961Z,101473.34
2022-12-17T12:19:32.129Z,101470.44
2022-12-17T12:21:10.825Z,101476.94
2022-12-17T12:22:49.265Z,101470.78
2022-12-17T12:24:12.390Z,101469.06
2022-12-17T12:25:38.717Z,101466.84
2022-12-17T12:27:08.522Z,101472.53
2022-12-17T12:28:31.878Z,101471.16
2022-12-17T12:29:51.687Z,101467.03
2022-12-17T12:31:41.079Z,101466.69
2022-12-17T12:33:08.417Z,101462.97
2022-12-17T12:34:30.909Z,101472.56
2022-12-17T12:35:51.269Z,101473.25
2022-12-17T12:37:11.197Z,101469.97
2022-12-17T12:38:41.656Z,101470.84
2022-12-17T12:40:04.991Z,101469.97
2022-12-17T12:42:03.430Z,101465.34
2022-12-17T12:43:29.673Z,101465.19
2022-12-17T12:44:56.230Z,101466.56
2022-12-17T12:46:16.612Z,101470.16
2022-12-17T12:47:40.675Z,101470.84
2022-12-17T12:49:04.445Z,101459.72
2022-12-17T12:50:29.745Z,101465.91
2022-12-17T12:51:52.497Z,101473.09
2022-12-17T12:53:12.450Z,101472.03
2022-12-17T12:54:43.270Z,101472.38
2022-12-17T12:56:03.507Z,101467.41
2022-12-17T12:57:26.335Z,101468.25
2022-12-17T12:58:49.389Z,101471.34
2022-12-17T13:00:09.664Z,101475.28
2022-12-17T13:01:30.158Z,101467.75
2022-12-17T13:02:50.316Z,101467.94
2022-12-17T13:04:11.970Z,101463.81
2022-12-17T13:05:34.690Z,101461.94
2022-12-17T13:06:43.328Z,101472.91
2022-12-17T13:07:44.850Z,101464.50
2022-12-17T13:08:46.304Z,101450.97
2022-12-17T13:09:48.837Z,101456.59
2022-12-17T13:10:50.477Z,101461.22
2022-12-17T13:12:04.270Z,101452.31
2022-12-17T13:13:17.757Z,101464.13
2022-12-17T13:14:20.744Z,101453.00
2022-12-17T13:15:30.253Z,101453.53
2022-12-17T13:16:54.054Z,101455.75
2022-12-17T13:18:00.386Z,101452.66
2022-12-17T13:19:03.186Z,101453.34
2022-12-17T13:20:21.206Z,101454.06
2022-12-17T13:21:26.002Z,101452.88
2022-12-17T13:22:28.732Z,101448.91
2022-12-17T13:23:31.403Z,101449.59
2022-12-17T13:24:32.889Z,101442.06
2022-12-17T13:25:34.422Z,101441.03
2022-12-17T13:26:41.570Z,101439.50
2022-12-17T13:27:43.077Z,101449.44
2022-12-17T13:28:48.427Z,101445.81
2022-12-17T13:29:49.944Z,101445.66
2022-12-17T13:30:59.669Z,101441.88
2022-12-17T13:32:01.244Z,101452.72
2022-12-17T13:33:09.046Z,101449.97
2022-12-17T13:34:27.004Z,101442.78
2022-12-17T13:35:38.388Z,101444.47
2022-12-17T13:36:55.616Z,101442.06
2022-12-17T13:37:59.852Z,101441.38
2022-12-17T13:39:06.670Z,101442.06
2022-12-17T13:40:16.979Z,101443.09
2022-12-17T13:41:19.119Z,101445.66
2022-12-17T13:42:34.602Z,101443.94
2022-12-17T13:43:56.857Z,101439.16
2022-12-17T13:44:58.403Z,101443.59
2022-12-17T13:45:59.950Z,101442.25
2022-12-17T13:47:01.466Z,101443.41
2022-12-17T13:48:03.025Z,101442.38
2022-12-17T13:49:05.431Z,101451.47
2022-12-17T13:50:38.349Z,101453.19
2022-12-17T13:51:39.866Z,101456.78
2022-12-17T13:52:41.348Z,101459.16
2022-12-17T13:53:50.889Z,101450.06
2022-12-17T13:54:52.482Z,101461.72
2022-12-17T13:55:54.796Z,101465.16
2022-12-17T13:57:05.956Z,101465.31
2022-12-17T13:58:19.170Z,101467.91
2022-12-17T13:59:21.837Z,101457.78
2022-12-17T14:00:23.901Z,101465.31
2022-12-17T14:01:28.510Z,101460.34
2022-12-17T14:02:32.071Z,101465.69
2022-12-17T14:04:03.835Z,101460.03
2022-12-17T14:04:55.829Z,101462.63
2022-12-17T14:05:59.737Z,101468.94
2022-12-17T14:07:03.573Z,101465.66
2022-12-17T14:08:06.649Z,101465.16
2022-12-17T14:09:08.195Z,101471.50
2022-12-17T14:10:14.400Z,101468.03
2022-12-17T14:11:34.298Z,101469.44
2022-12-17T14:12:35.827Z,101476.47
2022-12-17T14:13:37.300Z,101465.66
2022-12-17T14:14:38.959Z,101473.72
2022-12-17T14:15:44.643Z,101468.75
2022-12-17T14:16:50.577Z,101468.94
2022-12-17T14:17:52.845Z,101468.75
2022-12-17T14:18:57.263Z,101469.44
2022-12-17T14:19:59.229Z,101466.56
2022-12-17T14:21:00.753Z,101472.34
2022-12-17T14:22:02.449Z,101472.53
2022-12-17T14:23:07.472Z,101467.19
2022-12-17T14:24:10.693Z,101464.59
2022-12-17T14:25:16.233Z,101471.28
2022-12-17T14:26:17.766Z,101469.22
2022-12-17T14:27:23.135Z,101466.31
2022-12-17T14:28:34.505Z,101469.06
2022-12-17T14:29:44.911Z,101469.56
2022-12-17T14:31:24.429Z,101467.53
2022-12-17T14:32:21.543Z,101466.31
2022-12-17T14:33:32.900Z,101472.66
2022-12-17T14:34:41.224Z,101476.25
2022-12-17T14:35:42.696Z,101475.56
2022-12-17T14:36:44.163Z,101480.88
2022-12-17T14:37:46.483Z,101487.41
2022-12-17T14:38:57.771Z,101489.28
2022-12-17T14:40:00.951Z,101483.97
2022-12-17T14:41:23.057Z,101475.41
2022-12-17T14:42:30.769Z,101488.94
2022-12-17T14:43:32.255Z,101483.63
2022-12-17T14:44:33.757Z,101485.34
2022-12-17T14:45:55.233Z,101478.81
2022-12-17T14:47:12.678Z,101489.63
2022-12-17T14:48:14.152Z,101488.94
2022-12-17T14:49:16.781Z,101485.50
2022-12-17T14:50:18.235Z,101496.13
2022-12-17T14:51:23.257Z,101492.38
2022-12-17T14:52:33.123Z,101485.50
2022-12-17T14:53:34.738Z,101491.16
2022-12-17T14:54:36.194Z,101484.81
2022-12-17T14:55:57.272Z,101488.25
2022-12-17T14:56:59.035Z,101489.97
2022-12-17T14:58:26.438Z,101492.88
2022-12-17T14:59:30.445Z,101494.94
2022-12-17T15:00:32.299Z,101487.00
2022-12-17T15:01:34.769Z,101489.59
2022-12-17T15:02:38.440Z,101480.38
2022-12-17T15:03:40.781Z,101493.91
2022-12-17T15:04:42.317Z,101485.69
2022-12-17T15:05:43.773Z,101494.59
2022-12-17T15:06:45.290Z,101489.09
2022-12-17T15:07:46.756Z,101488.06
2022-12-17T15:08:49.291Z,101489.09